• Join FlightAware (Why Join?)
  • Login
  • US Flag 
02:18AM EDT


 

Airport Tracker/Info


-or-


 

Live Flight TrackerFlight Track Log ✈ SKW5550 ✈ 21-Jun-2013 ✈ KCOD - KDEN

Flight Track Log - Related Links

Times and Time Zones

All times are in EDT time to prevent confusion due to time zone crossing. See the SKW5550 flight status page for this flight to view local times or setup timezone preferences in your user account.

Time Position Orientation Groundspeed Altitude Reporting Facility
EDT Latitude Longitude Course Direction KTS MPH feet Rate Location/Type
08:18AM 44.1548 -108.6860 158° South  Level FlightAware Approximate
08:19AM 44.0599 -108.6341 159° South  Level FlightAware Approximate
08:20AM 43.9650 -108.5824 157° South  Level FlightAware Approximate
08:20AM 44.5403 -108.9206 119° Southeast 286 329 15,100  Level Salt Lake Center
08:21AM 43.8711 -108.5275 157° South  Level FlightAware Approximate
08:21AM 44.4536 -108.8592 153° Southeast 310 357 16,800  Level Salt Lake Center
08:22AM 43.7771 -108.4727 157° South  Level FlightAware Approximate
08:22AM 44.3775 -108.7858 145° Southeast 331 381 17,800  Level Salt Lake Center
08:23AM 43.6830 -108.4187 157° South  Level FlightAware Approximate
08:23AM 44.2958 -108.7125 147° Southeast 347 399 19,400  Level Salt Lake Center
08:24AM 43.6023 -108.3335 146° Southeast  Level Estimated
08:24AM 44.2017 -108.6256 146° Southeast 357 411 20,700  Level Salt Lake Center
08:25AM 43.5527 -108.2111 119° Southeast  Level FlightAware Approximate
08:25AM 44.1178 -108.5494 147° Southeast 365 420 22,100  Level Salt Lake Center
08:26AM 44.0333 -108.4742 147° Southeast 372 428 23,400 1,140 Climbing Salt Lake Center
08:27AM 43.9367 -108.3864 147° Southeast 372 428 24,500 960 Climbing Salt Lake Center
08:28AM 43.8558 -108.3144 147° Southeast 372 428 25,400 900 Climbing Salt Lake Center
08:29AM 43.7708 -108.2372 147° Southeast 378 435 26,400 900 Climbing Salt Lake Center
08:30AM 43.6711 -108.1475 147° Southeast 381 438 27,300 840 Climbing Salt Lake Center
08:31AM 43.5856 -108.0711 147° Southeast 383 441 28,100 660 Climbing Salt Lake Center
08:32AM 43.4983 -107.9933 147° Southeast 387 445 28,700 540 Climbing Salt Lake Center
08:33AM 43.3953 -107.9025 147° Southeast 392 451 29,200 480 Climbing Salt Lake Center
08:34AM 43.3050 -107.8228 147° Southeast 399 459 29,700 480 Climbing Salt Lake Center
08:35AM 43.2156 -107.7425 147° Southeast 402 463 30,200 480 Climbing Salt Lake Center
08:36AM 43.1233 -107.6617 147° Southeast 406 467 30,700 360 Climbing Salt Lake Center
08:37AM 43.0161 -107.5686 148° Southeast 408 470 31,000 120 Climbing Salt Lake Center
08:38AM 42.9217 -107.4858 147° Southeast 416 479 31,000  Level Salt Lake Center
08:39AM 42.8244 -107.4014 147° Southeast 427 491 31,000  Level Salt Lake Center
08:40AM 42.7111 -107.3014 147° Southeast 433 498 31,000  Level Salt Lake Center
08:41AM 42.6144 -107.2072 144° Southeast 441 507 31,000  Level Salt Lake Center
08:42AM 42.5178 -107.1136 144° Southeast 444 511 31,000  Level Salt Lake Center
08:43AM 42.4042 -107.0047 145° Southeast 446 513 31,000  Level Salt Lake Center
08:44AM 42.3072 -106.9122 145° Southeast 446 513 31,000  Level Salt Lake Center
08:45AM 42.2089 -106.8194 145° Southeast 448 516 31,000  Level Salt Lake Center
08:46AM 42.0925 -106.7097 145° Southeast 453 521 31,000  Level Salt Lake Center
08:47AM 41.9906 -106.6131 145° Southeast 452 520 31,000  Level Salt Lake Center
08:48AM 41.8928 -106.5222 145° Southeast 449 517 31,000  Level Salt Lake Center
08:49AM 41.7956 -106.4308 145° Southeast 447 514 31,000  Level Salt Lake Center
08:50AM 41.6817 -106.3258 145° Southeast 446 513 31,000  Level Salt Lake Center
08:51AM 41.5847 -106.2342 145° Southeast 447 514 31,000  Level Salt Lake Center
08:52AM 41.4553 -106.1136 145° Southeast 444 511 31,000  Level Denver Center
08:53AM 41.3581 -106.0253 146° Southeast 444 511 31,000  Level Denver Center
08:54AM 41.2428 -105.9192 145° Southeast 452 520 31,000  Level Denver Center
08:56AM 41.1442 -105.8283 145° Southeast 451 519 31,000 -900 Level Denver Center
08:57AM 41.0289 -105.7239 146° Southeast 451 519 29,200 -2,400 Descending Denver Center
08:58AM 40.9294 -105.6328 145° Southeast 444 511 26,200 -3,000 Descending Denver Center
08:59AM 40.8283 -105.5425 146° Southeast 439 505 23,200 -3,000 Descending Denver Center
09:00AM 40.7281 -105.4517 146° Southeast 439 505 20,200 -2,820 Descending Denver Center
09:01AM 40.6331 -105.3647 145° Southeast 421 484 17,500 -1,620 Descending Denver Center
09:02AM 40.5436 -105.2847 146° Southeast 394 453 17,000 -660 Descending Denver Center
09:03AM 40.4711 -105.1622 128° Southeast 420 483 16,200 -900 Descending Denver Center
09:04AM 40.4311 -105.0214 110° East 414 476 15,200 -1,140 Descending Denver Center
09:05AM 40.3683 -104.9011 124° Southeast 399 459 13,900 -1,560 Descending Denver Center
09:06AM 40.2994 -104.7950 130° Southeast 388 447 12,100 -1,560 Descending Denver Center
09:07AM 40.1958 -104.7583 165° South 304 350 10,500 -1,440 Descending Denver Center
09:08AM 40.1178 -104.7322 166° South 289 333 9,000 -1,500 Descending Denver Center